sensor_id;sensor_type;location;lat;lon;timestamp;P1;durP1;ratioP1;P2;durP2;ratioP2
48207;SDS011;33997;53.278;9.708;2024-03-23T00:51:21;3.42;;;1.10;;
48207;SDS011;33997;53.278;9.708;2024-03-23T00:53:47;3.63;;;1.60;;
48207;SDS011;33997;53.278;9.708;2024-03-23T00:56:12;8.00;;;1.95;;
48207;SDS011;33997;53.278;9.708;2024-03-23T00:58:38;2.13;;;1.00;;
48207;SDS011;33997;53.278;9.708;2024-03-23T01:01:03;2.22;;;1.13;;
48207;SDS011;33997;53.278;9.708;2024-03-23T01:03:29;5.40;;;1.52;;
48207;SDS011;33997;53.278;9.708;2024-03-23T01:05:58;3.95;;;1.45;;
48207;SDS011;33997;53.278;9.708;2024-03-23T01:08:27;3.78;;;1.30;;
48207;SDS011;33997;53.278;9.708;2024-03-23T01:11:01;2.90;;;1.35;;
48207;SDS011;33997;53.278;9.708;2024-03-23T01:13:27;4.53;;;1.25;;
48207;SDS011;33997;53.278;9.708;2024-03-23T01:15:54;6.68;;;1.52;;
48207;SDS011;33997;53.278;9.708;2024-03-23T01:18:20;2.95;;;1.27;;
48207;SDS011;33997;53.278;9.708;2024-03-23T01:20:47;2.80;;;1.40;;
48207;SDS011;33997;53.278;9.708;2024-03-23T01:23:13;3.63;;;1.52;;
48207;SDS011;33997;53.278;9.708;2024-03-23T01:25:38;2.67;;;1.13;;
48207;SDS011;33997;53.278;9.708;2024-03-23T01:28:04;5.88;;;1.10;;
48207;SDS011;33997;53.278;9.708;2024-03-23T01:30:31;2.63;;;1.38;;
48207;SDS011;33997;53.278;9.708;2024-03-23T01:32:57;3.50;;;1.15;;
48207;SDS011;33997;53.278;9.708;2024-03-23T01:35:22;2.03;;;0.98;;
48207;SDS011;33997;53.278;9.708;2024-03-23T01:37:48;7.10;;;1.50;;
48207;SDS011;33997;53.278;9.708;2024-03-23T01:40:13;2.45;;;1.27;;
48207;SDS011;33997;53.278;9.708;2024-03-23T01:42:40;4.85;;;1.83;;
48207;SDS011;33997;53.278;9.708;2024-03-23T01:45:07;4.45;;;1.33;;
48207;SDS011;33997;53.278;9.708;2024-03-23T01:47:34;3.08;;;1.23;;
48207;SDS011;33997;53.278;9.708;2024-03-23T01:49:59;3.83;;;1.27;;
48207;SDS011;33997;53.278;9.708;2024-03-23T01:52:25;3.53;;;1.60;;
48207;SDS011;33997;53.278;9.708;2024-03-23T01:54:55;2.22;;;1.20;;
48207;SDS011;33997;53.278;9.708;2024-03-23T01:57:20;7.60;;;1.50;;
48207;SDS011;33997;53.278;9.708;2024-03-23T01:59:46;3.90;;;1.30;;
48207;SDS011;33997;53.278;9.708;2024-03-23T02:02:12;3.15;;;1.48;;
48207;SDS011;33997;53.278;9.708;2024-03-23T02:04:38;3.63;;;1.63;;
48207;SDS011;33997;53.278;9.708;2024-03-23T02:07:04;5.68;;;1.15;;
48207;SDS011;33997;53.278;9.708;2024-03-23T02:09:32;3.10;;;1.70;;
48207;SDS011;33997;53.278;9.708;2024-03-23T02:11:58;3.63;;;1.00;;
48207;SDS011;33997;53.278;9.708;2024-03-23T02:14:24;3.25;;;1.20;;
48207;SDS011;33997;53.278;9.708;2024-03-23T02:16:49;3.40;;;1.50;;
48207;SDS011;33997;53.278;9.708;2024-03-23T02:19:15;6.97;;;1.30;;
48207;SDS011;33997;53.278;9.708;2024-03-23T02:21:41;5.07;;;1.63;;
48207;SDS011;33997;53.278;9.708;2024-03-23T02:24:06;2.10;;;1.00;;
48207;SDS011;33997;53.278;9.708;2024-03-23T02:26:32;2.17;;;1.20;;
48207;SDS011;33997;53.278;9.708;2024-03-23T02:28:57;3.95;;;1.40;;
48207;SDS011;33997;53.278;9.708;2024-03-23T02:31:23;6.85;;;1.13;;
48207;SDS011;33997;53.278;9.708;2024-03-23T02:33:48;2.78;;;1.42;;
48207;SDS011;33997;53.278;9.708;2024-03-23T02:36:13;5.35;;;1.23;;
48207;SDS011;33997;53.278;9.708;2024-03-23T02:38:39;4.15;;;1.60;;
48207;SDS011;33997;53.278;9.708;2024-03-23T02:41:04;3.25;;;1.25;;
48207;SDS011;33997;53.278;9.708;2024-03-23T02:43:30;2.97;;;1.42;;
48207;SDS011;33997;53.278;9.708;2024-03-23T02:45:56;6.38;;;1.48;;
48207;SDS011;33997;53.278;9.708;2024-03-23T02:48:22;3.65;;;1.52;;
48207;SDS011;33997;53.278;9.708;2024-03-23T02:50:47;3.88;;;1.05;;
48207;SDS011;33997;53.278;9.708;2024-03-23T02:53:13;4.80;;;1.45;;
48207;SDS011;33997;53.278;9.708;2024-03-23T02:55:38;4.75;;;1.08;;
48207;SDS011;33997;53.278;9.708;2024-03-23T02:58:04;4.10;;;1.90;;
48207;SDS011;33997;53.278;9.708;2024-03-23T03:00:30;5.68;;;1.30;;
48207;SDS011;33997;53.278;9.708;2024-03-23T03:02:55;3.60;;;1.50;;
48207;SDS011;33997;53.278;9.708;2024-03-23T03:05:21;4.25;;;1.40;;
48207;SDS011;33997;53.278;9.708;2024-03-23T03:07:46;1.65;;;1.35;;
48207;SDS011;33997;53.278;9.708;2024-03-23T03:10:12;1.75;;;0.93;;
48207;SDS011;33997;53.278;9.708;2024-03-23T03:12:37;3.88;;;1.40;;
48207;SDS011;33997;53.278;9.708;2024-03-23T03:15:06;2.42;;;1.17;;
48207;SDS011;33997;53.278;9.708;2024-03-23T03:17:32;2.58;;;0.95;;
48207;SDS011;33997;53.278;9.708;2024-03-23T03:19:58;7.82;;;0.98;;
48207;SDS011;33997;53.278;9.708;2024-03-23T03:22:24;5.85;;;1.58;;
48207;SDS011;33997;53.278;9.708;2024-03-23T03:24:50;2.67;;;1.38;;
48207;SDS011;33997;53.278;9.708;2024-03-23T03:27:15;2.55;;;1.15;;
48207;SDS011;33997;53.278;9.708;2024-03-23T03:29:41;3.50;;;1.10;;
48207;SDS011;33997;53.278;9.708;2024-03-23T03:32:06;2.85;;;1.55;;
48207;SDS011;33997;53.278;9.708;2024-03-23T03:34:32;3.03;;;1.10;;
48207;SDS011;33997;53.278;9.708;2024-03-23T03:36:58;4.00;;;1.50;;
48207;SDS011;33997;53.278;9.708;2024-03-23T03:39:24;1.75;;;1.02;;
48207;SDS011;33997;53.278;9.708;2024-03-23T03:41:50;3.53;;;1.33;;
48207;SDS011;33997;53.278;9.708;2024-03-23T03:44:16;6.40;;;1.35;;
48207;SDS011;33997;53.278;9.708;2024-03-23T03:46:41;1.70;;;0.80;;
48207;SDS011;33997;53.278;9.708;2024-03-23T03:49:07;3.60;;;1.38;;
48207;SDS011;33997;53.278;9.708;2024-03-23T03:51:33;1.25;;;0.80;;
48207;SDS011;33997;53.278;9.708;2024-03-23T03:53:58;6.68;;;1.17;;
48207;SDS011;33997;53.278;9.708;2024-03-23T03:56:23;0.80;;;0.80;;
48207;SDS011;33997;53.278;9.708;2024-03-23T03:58:49;4.53;;;1.33;;
48207;SDS011;33997;53.278;9.708;2024-03-23T04:01:14;5.15;;;1.52;;
48207;SDS011;33997;53.278;9.708;2024-03-23T04:03:40;3.55;;;1.65;;
48207;SDS011;33997;53.278;9.708;2024-03-23T04:06:08;4.40;;;1.15;;
48207;SDS011;33997;53.278;9.708;2024-03-23T04:08:34;3.65;;;1.35;;
48207;SDS011;33997;53.278;9.708;2024-03-23T04:11:00;6.05;;;1.45;;
48207;SDS011;33997;53.278;9.708;2024-03-23T04:13:25;2.03;;;1.10;;
48207;SDS011;33997;53.278;9.708;2024-03-23T04:15:54;3.08;;;1.25;;
48207;SDS011;33997;53.278;9.708;2024-03-23T04:18:20;5.45;;;1.10;;
48207;SDS011;33997;53.278;9.708;2024-03-23T04:20:46;3.67;;;1.40;;
48207;SDS011;33997;53.278;9.708;2024-03-23T04:23:12;2.20;;;0.93;;
48207;SDS011;33997;53.278;9.708;2024-03-23T04:25:37;2.17;;;0.90;;
48207;SDS011;33997;53.278;9.708;2024-03-23T04:28:03;9.40;;;1.58;;
48207;SDS011;33997;53.278;9.708;2024-03-23T04:30:29;3.75;;;1.33;;
48207;SDS011;33997;53.278;9.708;2024-03-23T04:32:55;1.75;;;1.00;;
48207;SDS011;33997;53.278;9.708;2024-03-23T04:35:21;1.98;;;0.73;;
48207;SDS011;33997;53.278;9.708;2024-03-23T04:37:50;3.45;;;1.17;;
48207;SDS011;33997;53.278;9.708;2024-03-23T04:40:17;4.07;;;0.90;;
48207;SDS011;33997;53.278;9.708;2024-03-23T04:42:43;3.97;;;1.63;;
48207;SDS011;33997;53.278;9.708;2024-03-23T04:45:08;1.30;;;1.10;;
48207;SDS011;33997;53.278;9.708;2024-03-23T04:47:35;7.65;;;1.30;;
48207;SDS011;33997;53.278;9.708;2024-03-23T04:50:02;5.97;;;1.30;;
48207;SDS011;33997;53.278;9.708;2024-03-23T04:52:28;7.72;;;1.90;;
48207;SDS011;33997;53.278;9.708;2024-03-23T04:54:54;5.35;;;1.30;;
48207;SDS011;33997;53.278;9.708;2024-03-23T04:57:19;4.40;;;1.38;;
48207;SDS011;33997;53.278;9.708;2024-03-23T04:59:45;5.43;;;1.40;;
48207;SDS011;33997;53.278;9.708;2024-03-23T05:02:10;5.28;;;1.20;;
48207;SDS011;33997;53.278;9.708;2024-03-23T05:04:36;5.25;;;1.30;;
48207;SDS011;33997;53.278;9.708;2024-03-23T05:07:02;2.88;;;1.48;;
48207;SDS011;33997;53.278;9.708;2024-03-23T05:09:28;3.33;;;1.52;;
48207;SDS011;33997;53.278;9.708;2024-03-23T05:11:55;3.67;;;1.70;;
48207;SDS011;33997;53.278;9.708;2024-03-23T05:14:21;1.73;;;1.10;;
48207;SDS011;33997;53.278;9.708;2024-03-23T05:16:47;2.78;;;1.40;;
48207;SDS011;33997;53.278;9.708;2024-03-23T05:19:13;5.43;;;1.75;;
48207;SDS011;33997;53.278;9.708;2024-03-23T05:21:38;8.82;;;1.60;;
48207;SDS011;33997;53.278;9.708;2024-03-23T05:24:04;4.93;;;1.75;;
48207;SDS011;33997;53.278;9.708;2024-03-23T05:26:30;2.25;;;1.30;;
48207;SDS011;33997;53.278;9.708;2024-03-23T05:28:55;4.53;;;1.58;;
48207;SDS011;33997;53.278;9.708;2024-03-23T05:31:27;6.13;;;1.50;;
48207;SDS011;33997;53.278;9.708;2024-03-23T05:33:54;2.15;;;1.50;;
48207;SDS011;33997;53.278;9.708;2024-03-23T05:36:20;3.13;;;1.25;;
48207;SDS011;33997;53.278;9.708;2024-03-23T05:38:46;4.07;;;1.25;;
48207;SDS011;33997;53.278;9.708;2024-03-23T05:41:12;4.35;;;1.42;;
48207;SDS011;33997;53.278;9.708;2024-03-23T05:43:37;6.30;;;1.60;;
48207;SDS011;33997;53.278;9.708;2024-03-23T05:46:03;3.08;;;1.33;;
48207;SDS011;33997;53.278;9.708;2024-03-23T05:48:30;2.10;;;1.25;;
48207;SDS011;33997;53.278;9.708;2024-03-23T05:50:56;4.70;;;1.85;;
48207;SDS011;33997;53.278;9.708;2024-03-23T05:53:22;4.60;;;2.15;;
48207;SDS011;33997;53.278;9.708;2024-03-23T05:55:48;3.92;;;1.60;;
48207;SDS011;33997;53.278;9.708;2024-03-23T05:58:17;4.30;;;1.58;;
48207;SDS011;33997;53.278;9.708;2024-03-23T06:00:43;3.60;;;1.70;;
48207;SDS011;33997;53.278;9.708;2024-03-23T06:03:09;3.67;;;1.75;;
48207;SDS011;33997;53.278;9.708;2024-03-23T06:05:35;7.97;;;1.85;;
48207;SDS011;33997;53.278;9.708;2024-03-23T06:08:01;4.90;;;1.50;;
48207;SDS011;33997;53.278;9.708;2024-03-23T06:10:27;7.35;;;1.90;;
48207;SDS011;33997;53.278;9.708;2024-03-23T06:12:53;4.50;;;1.75;;
48207;SDS011;33997;53.278;9.708;2024-03-23T06:15:18;3.95;;;1.60;;
48207;SDS011;33997;53.278;9.708;2024-03-23T06:17:44;5.15;;;1.83;;
48207;SDS011;33997;53.278;9.708;2024-03-23T06:20:10;4.60;;;1.60;;
48207;SDS011;33997;53.278;9.708;2024-03-23T06:22:36;4.32;;;2.08;;
48207;SDS011;33997;53.278;9.708;2024-03-23T06:25:02;5.95;;;2.08;;
48207;SDS011;33997;53.278;9.708;2024-03-23T06:27:27;3.70;;;1.60;;
48207;SDS011;33997;53.278;9.708;2024-03-23T06:29:53;2.35;;;1.52;;
48207;SDS011;33997;53.278;9.708;2024-03-23T06:32:18;5.00;;;2.08;;
48207;SDS011;33997;53.278;9.708;2024-03-23T06:34:44;4.32;;;1.63;;
48207;SDS011;33997;53.278;9.708;2024-03-23T06:37:10;4.95;;;2.13;;
48207;SDS011;33997;53.278;9.708;2024-03-23T06:39:36;6.20;;;2.47;;
48207;SDS011;33997;53.278;9.708;2024-03-23T06:42:02;4.68;;;2.00;;
48207;SDS011;33997;53.278;9.708;2024-03-23T06:44:28;3.80;;;1.63;;
48207;SDS011;33997;53.278;9.708;2024-03-23T06:46:54;6.55;;;1.50;;
48207;SDS011;33997;53.278;9.708;2024-03-23T06:49:20;3.67;;;1.77;;
48207;SDS011;33997;53.278;9.708;2024-03-23T06:51:45;4.05;;;1.50;;
48207;SDS011;33997;53.278;9.708;2024-03-23T06:54:11;3.00;;;1.33;;
48207;SDS011;33997;53.278;9.708;2024-03-23T06:56:37;8.38;;;2.00;;
48207;SDS011;33997;53.278;9.708;2024-03-23T06:59:02;3.83;;;1.70;;
48207;SDS011;33997;53.278;9.708;2024-03-23T07:01:28;3.85;;;1.83;;
48207;SDS011;33997;53.278;9.708;2024-03-23T07:03:54;4.75;;;1.92;;
48207;SDS011;33997;53.278;9.708;2024-03-23T07:06:19;4.13;;;1.88;;
48207;SDS011;33997;53.278;9.708;2024-03-23T07:08:45;3.97;;;1.77;;
48207;SDS011;33997;53.278;9.708;2024-03-23T07:11:10;3.67;;;1.58;;
48207;SDS011;33997;53.278;9.708;2024-03-23T07:13:36;3.55;;;1.67;;
48207;SDS011;33997;53.278;9.708;2024-03-23T07:16:01;5.90;;;2.22;;
48207;SDS011;33997;53.278;9.708;2024-03-23T07:18:27;5.05;;;2.20;;
48207;SDS011;33997;53.278;9.708;2024-03-23T07:20:53;5.80;;;2.30;;
48207;SDS011;33997;53.278;9.708;2024-03-23T07:23:23;4.55;;;1.80;;
48207;SDS011;33997;53.278;9.708;2024-03-23T07:25:58;6.15;;;1.40;;
48207;SDS011;33997;53.278;9.708;2024-03-23T07:28:25;4.10;;;1.60;;
48207;SDS011;33997;53.278;9.708;2024-03-23T07:31:09;4.07;;;2.03;;
48207;SDS011;33997;53.278;9.708;2024-03-23T07:33:47;4.60;;;1.80;;
48207;SDS011;33997;53.278;9.708;2024-03-23T07:36:13;5.18;;;1.95;;
48207;SDS011;33997;53.278;9.708;2024-03-23T07:38:45;3.78;;;1.40;;
48207;SDS011;33997;53.278;9.708;2024-03-23T07:41:11;3.20;;;1.67;;
48207;SDS011;33997;53.278;9.708;2024-03-23T07:43:39;4.32;;;1.48;;
48207;SDS011;33997;53.278;9.708;2024-03-23T07:46:05;5.10;;;1.58;;
48207;SDS011;33997;53.278;9.708;2024-03-23T07:48:31;3.50;;;1.30;;
48207;SDS011;33997;53.278;9.708;2024-03-23T07:53:27;4.85;;;1.83;;
48207;SDS011;33997;53.278;9.708;2024-03-23T07:56:06;7.90;;;1.77;;
48207;SDS011;33997;53.278;9.708;2024-03-23T07:58:32;3.53;;;1.50;;
48207;SDS011;33997;53.278;9.708;2024-03-23T08:01:11;2.55;;;1.52;;
48207;SDS011;33997;53.278;9.708;2024-03-23T08:03:38;2.17;;;1.30;;
48207;SDS011;33997;53.278;9.708;2024-03-23T08:08:37;3.50;;;1.67;;
48207;SDS011;33997;53.278;9.708;2024-03-23T08:11:03;6.00;;;1.77;;
48207;SDS011;33997;53.278;9.708;2024-03-23T08:13:29;6.88;;;1.92;;
48207;SDS011;33997;53.278;9.708;2024-03-23T08:16:02;5.88;;;1.75;;
48207;SDS011;33997;53.278;9.708;2024-03-23T08:18:29;5.38;;;2.17;;
48207;SDS011;33997;53.278;9.708;2024-03-23T08:20:58;3.30;;;1.30;;
48207;SDS011;33997;53.278;9.708;2024-03-23T08:23:28;6.72;;;1.33;;
48207;SDS011;33997;53.278;9.708;2024-03-23T08:25:57;3.17;;;1.27;;
48207;SDS011;33997;53.278;9.708;2024-03-23T08:28:23;2.80;;;1.05;;
48207;SDS011;33997;53.278;9.708;2024-03-23T08:30:49;3.00;;;1.77;;
48207;SDS011;33997;53.278;9.708;2024-03-23T08:33:15;3.85;;;0.90;;
48207;SDS011;33997;53.278;9.708;2024-03-23T08:35:41;2.47;;;1.58;;
48207;SDS011;33997;53.278;9.708;2024-03-23T08:38:07;2.78;;;1.10;;
48207;SDS011;33997;53.278;9.708;2024-03-23T08:40:32;3.13;;;1.13;;
48207;SDS011;33997;53.278;9.708;2024-03-23T08:42:58;4.53;;;1.33;;
48207;SDS011;33997;53.278;9.708;2024-03-23T08:45:24;3.55;;;1.50;;
48207;SDS011;33997;53.278;9.708;2024-03-23T08:47:50;6.53;;;1.90;;
48207;SDS011;33997;53.278;9.708;2024-03-23T08:50:16;8.57;;;1.88;;
48207;SDS011;33997;53.278;9.708;2024-03-23T08:52:42;3.40;;;1.27;;
48207;SDS011;33997;53.278;9.708;2024-03-23T08:55:07;4.68;;;1.60;;
48207;SDS011;33997;53.278;9.708;2024-03-23T08:57:34;2.75;;;1.20;;
48207;SDS011;33997;53.278;9.708;2024-03-23T09:00:00;1.92;;;1.13;;
48207;SDS011;33997;53.278;9.708;2024-03-23T09:02:25;6.85;;;1.15;;
48207;SDS011;33997;53.278;9.708;2024-03-23T09:04:51;5.35;;;1.48;;
48207;SDS011;33997;53.278;9.708;2024-03-23T09:07:16;4.47;;;1.50;;
48207;SDS011;33997;53.278;9.708;2024-03-23T09:09:42;5.80;;;0.98;;
48207;SDS011;33997;53.278;9.708;2024-03-23T09:12:07;5.57;;;0.98;;
48207;SDS011;33997;53.278;9.708;2024-03-23T09:14:33;4.38;;;0.77;;
48207;SDS011;33997;53.278;9.708;2024-03-23T09:16:59;3.92;;;0.98;;
48207;SDS011;33997;53.278;9.708;2024-03-23T09:19:26;2.50;;;1.08;;
48207;SDS011;33997;53.278;9.708;2024-03-23T09:21:53;2.20;;;0.75;;
48207;SDS011;33997;53.278;9.708;2024-03-23T09:24:19;4.82;;;1.50;;
48207;SDS011;33997;53.278;9.708;2024-03-23T09:26:44;2.40;;;0.77;;
48207;SDS011;33997;53.278;9.708;2024-03-23T09:29:09;4.50;;;1.48;;
48207;SDS011;33997;53.278;9.708;2024-03-23T09:31:35;3.05;;;0.90;;
48207;SDS011;33997;53.278;9.708;2024-03-23T09:34:01;2.83;;;1.00;;
48207;SDS011;33997;53.278;9.708;2024-03-23T09:36:26;5.53;;;1.05;;
48207;SDS011;33997;53.278;9.708;2024-03-23T09:38:52;2.97;;;0.93;;
48207;SDS011;33997;53.278;9.708;2024-03-23T09:41:17;2.28;;;0.65;;
48207;SDS011;33997;53.278;9.708;2024-03-23T09:43:43;5.38;;;0.90;;
48207;SDS011;33997;53.278;9.708;2024-03-23T09:46:09;1.77;;;0.93;;
48207;SDS011;33997;53.278;9.708;2024-03-23T09:48:34;1.60;;;0.70;;
48207;SDS011;33997;53.278;9.708;2024-03-23T09:51:01;2.08;;;0.75;;
48207;SDS011;33997;53.278;9.708;2024-03-23T09:53:27;5.75;;;1.10;;
48207;SDS011;33997;53.278;9.708;2024-03-23T09:55:53;3.70;;;1.00;;
48207;SDS011;33997;53.278;9.708;2024-03-23T09:58:19;3.90;;;0.90;;
48207;SDS011;33997;53.278;9.708;2024-03-23T10:00:48;1.58;;;0.35;;
48207;SDS011;33997;53.278;9.708;2024-03-23T10:03:13;2.22;;;0.60;;
48207;SDS011;33997;53.278;9.708;2024-03-23T10:05:39;3.25;;;0.70;;
48207;SDS011;33997;53.278;9.708;2024-03-23T10:10:39;1.20;;;0.60;;
48207;SDS011;33997;53.278;9.708;2024-03-23T10:13:05;2.92;;;0.73;;
48207;SDS011;33997;53.278;9.708;2024-03-23T10:15:32;4.07;;;0.93;;
48207;SDS011;33997;53.278;9.708;2024-03-23T10:18:02;1.15;;;0.40;;
48207;SDS011;33997;53.278;9.708;2024-03-23T10:20:43;1.60;;;0.93;;
48207;SDS011;33997;53.278;9.708;2024-03-23T10:23:17;1.58;;;0.52;;
48207;SDS011;33997;53.278;9.708;2024-03-23T10:25:42;4.32;;;0.65;;
48207;SDS011;33997;53.278;9.708;2024-03-23T10:28:08;6.70;;;1.17;;
48207;SDS011;33997;53.278;9.708;2024-03-23T10:30:34;2.28;;;0.60;;
48207;SDS011;33997;53.278;9.708;2024-03-23T10:33:10;2.70;;;0.45;;
48207;SDS011;33997;53.278;9.708;2024-03-23T10:35:36;3.78;;;0.85;;
48207;SDS011;33997;53.278;9.708;2024-03-23T10:38:04;1.20;;;0.60;;
48207;SDS011;33997;53.278;9.708;2024-03-23T10:40:31;1.95;;;0.40;;
48207;SDS011;33997;53.278;9.708;2024-03-23T10:43:05;1.23;;;0.70;;
48207;SDS011;33997;53.278;9.708;2024-03-23T10:45:33;1.92;;;0.90;;
48207;SDS011;33997;53.278;9.708;2024-03-23T10:47:58;2.05;;;0.73;;
48207;SDS011;33997;53.278;9.708;2024-03-23T10:50:24;1.55;;;0.63;;
48207;SDS011;33997;53.278;9.708;2024-03-23T10:52:49;3.10;;;1.08;;
48207;SDS011;33997;53.278;9.708;2024-03-23T10:55:18;1.38;;;0.55;;
48207;SDS011;33997;53.278;9.708;2024-03-23T10:57:48;2.10;;;0.80;;
48207;SDS011;33997;53.278;9.708;2024-03-23T11:00:16;2.67;;;0.80;;
48207;SDS011;33997;53.278;9.708;2024-03-23T11:02:42;1.35;;;0.70;;
48207;SDS011;33997;53.278;9.708;2024-03-23T11:07:51;2.30;;;0.50;;
48207;SDS011;33997;53.278;9.708;2024-03-23T11:10:28;3.45;;;0.47;;
48207;SDS011;33997;53.278;9.708;2024-03-23T11:12:58;3.72;;;0.68;;
48207;SDS011;33997;53.278;9.708;2024-03-23T11:15:43;1.02;;;0.57;;
48207;SDS011;33997;53.278;9.708;2024-03-23T11:18:09;3.67;;;0.65;;
48207;SDS011;33997;53.278;9.708;2024-03-23T11:20:35;2.00;;;0.50;;
48207;SDS011;33997;53.278;9.708;2024-03-23T11:23:00;1.02;;;0.63;;
48207;SDS011;33997;53.278;9.708;2024-03-23T11:25:27;2.38;;;0.60;;
48207;SDS011;33997;53.278;9.708;2024-03-23T11:27:54;2.72;;;0.82;;
48207;SDS011;33997;53.278;9.708;2024-03-23T11:30:22;1.92;;;0.75;;
48207;SDS011;33997;53.278;9.708;2024-03-23T11:32:50;2.97;;;0.60;;
48207;SDS011;33997;53.278;9.708;2024-03-23T11:35:37;1.25;;;0.40;;
48207;SDS011;33997;53.278;9.708;2024-03-23T11:38:12;3.95;;;0.75;;
48207;SDS011;33997;53.278;9.708;2024-03-23T11:40:39;6.30;;;1.00;;
48207;SDS011;33997;53.278;9.708;2024-03-23T11:43:09;1.55;;;0.57;;
48207;SDS011;33997;53.278;9.708;2024-03-23T11:50:37;1.40;;;0.47;;
48207;SDS011;33997;53.278;9.708;2024-03-23T11:53:06;3.38;;;0.50;;
48207;SDS011;33997;53.278;9.708;2024-03-23T11:55:51;2.17;;;0.40;;
48207;SDS011;33997;53.278;9.708;2024-03-23T11:58:21;2.05;;;0.60;;
48207;SDS011;33997;53.278;9.708;2024-03-23T12:00:52;0.80;;;0.70;;
48207;SDS011;33997;53.278;9.708;2024-03-23T12:03:20;1.75;;;0.65;;
48207;SDS011;33997;53.278;9.708;2024-03-23T12:05:50;1.10;;;0.55;;
48207;SDS011;33997;53.278;9.708;2024-03-23T12:08:25;1.30;;;0.85;;
48207;SDS011;33997;53.278;9.708;2024-03-23T12:11:07;1.33;;;0.70;;
48207;SDS011;33997;53.278;9.708;2024-03-23T12:13:37;1.83;;;0.93;;
48207;SDS011;33997;53.278;9.708;2024-03-23T12:16:13;0.75;;;0.57;;
48207;SDS011;33997;53.278;9.708;2024-03-23T12:18:44;0.40;;;0.40;;
48207;SDS011;33997;53.278;9.708;2024-03-23T12:21:10;1.08;;;0.52;;
48207;SDS011;33997;53.278;9.708;2024-03-23T12:23:36;1.85;;;0.80;;
48207;SDS011;33997;53.278;9.708;2024-03-23T12:26:04;2.60;;;0.98;;
48207;SDS011;33997;53.278;9.708;2024-03-23T12:28:29;2.38;;;0.70;;
48207;SDS011;33997;53.278;9.708;2024-03-23T12:30:55;1.02;;;0.82;;
48207;SDS011;33997;53.278;9.708;2024-03-23T12:33:21;1.15;;;0.98;;
48207;SDS011;33997;53.278;9.708;2024-03-23T12:35:47;1.40;;;1.05;;
48207;SDS011;33997;53.278;9.708;2024-03-23T12:38:16;1.73;;;1.40;;
48207;SDS011;33997;53.278;9.708;2024-03-23T12:40:42;0.30;;;0.30;;
48207;SDS011;33997;53.278;9.708;2024-03-23T12:43:12;1.70;;;0.43;;
48207;SDS011;33997;53.278;9.708;2024-03-23T12:45:37;0.70;;;0.60;;
48207;SDS011;33997;53.278;9.708;2024-03-23T12:48:03;0.47;;;0.30;;
48207;SDS011;33997;53.278;9.708;2024-03-23T12:50:28;0.90;;;0.35;;
48207;SDS011;33997;53.278;9.708;2024-03-23T12:52:54;0.25;;;0.20;;
48207;SDS011;33997;53.278;9.708;2024-03-23T12:55:19;0.77;;;0.43;;
48207;SDS011;33997;53.278;9.708;2024-03-23T12:57:45;0.40;;;0.30;;
48207;SDS011;33997;53.278;9.708;2024-03-23T13:00:11;0.45;;;0.40;;
48207;SDS011;33997;53.278;9.708;2024-03-23T13:02:37;1.60;;;0.85;;
48207;SDS011;33997;53.278;9.708;2024-03-23T13:05:04;1.23;;;0.73;;
48207;SDS011;33997;53.278;9.708;2024-03-23T13:07:30;0.60;;;0.35;;
48207;SDS011;33997;53.278;9.708;2024-03-23T13:09:55;0.10;;;0.10;;
48207;SDS011;33997;53.278;9.708;2024-03-23T13:12:21;0.70;;;0.20;;
48207;SDS011;33997;53.278;9.708;2024-03-23T13:14:47;2.05;;;0.40;;
48207;SDS011;33997;53.278;9.708;2024-03-23T13:17:13;2.20;;;0.40;;
48207;SDS011;33997;53.278;9.708;2024-03-23T13:19:39;0.45;;;0.30;;
48207;SDS011;33997;53.278;9.708;2024-03-23T13:22:05;0.10;;;0.10;;
48207;SDS011;33997;53.278;9.708;2024-03-23T13:24:31;0.22;;;0.20;;
48207;SDS011;33997;53.278;9.708;2024-03-23T13:26:57;0.20;;;0.20;;
48207;SDS011;33997;53.278;9.708;2024-03-23T13:29:23;0.20;;;0.20;;
48207;SDS011;33997;53.278;9.708;2024-03-23T13:31:49;0.70;;;0.30;;
48207;SDS011;33997;53.278;9.708;2024-03-23T13:34:16;0.32;;;0.32;;
48207;SDS011;33997;53.278;9.708;2024-03-23T13:36:42;0.30;;;0.30;;
48207;SDS011;33997;53.278;9.708;2024-03-23T13:39:11;0.40;;;0.40;;
48207;SDS011;33997;53.278;9.708;2024-03-23T13:41:41;0.22;;;0.22;;
48207;SDS011;33997;53.278;9.708;2024-03-23T13:44:07;0.52;;;0.30;;
48207;SDS011;33997;53.278;9.708;2024-03-23T13:46:37;1.02;;;0.40;;
48207;SDS011;33997;53.278;9.708;2024-03-23T13:49:03;0.45;;;0.35;;
48207;SDS011;33997;53.278;9.708;2024-03-23T13:51:29;0.77;;;0.40;;
48207;SDS011;33997;53.278;9.708;2024-03-23T13:53:55;0.43;;;0.30;;
48207;SDS011;33997;53.278;9.708;2024-03-23T13:56:21;0.50;;;0.50;;
48207;SDS011;33997;53.278;9.708;2024-03-23T13:58:47;1.95;;;0.40;;
48207;SDS011;33997;53.278;9.708;2024-03-23T14:01:14;0.40;;;0.40;;
48207;SDS011;33997;53.278;9.708;2024-03-23T14:03:40;0.80;;;0.45;;
48207;SDS011;33997;53.278;9.708;2024-03-23T14:06:06;0.20;;;0.20;;
48207;SDS011;33997;53.278;9.708;2024-03-23T14:08:33;0.20;;;0.20;;
48207;SDS011;33997;53.278;9.708;2024-03-23T14:11:00;0.20;;;0.20;;
48207;SDS011;33997;53.278;9.708;2024-03-23T14:13:27;0.30;;;0.25;;
48207;SDS011;33997;53.278;9.708;2024-03-23T14:15:53;0.32;;;0.30;;
48207;SDS011;33997;53.278;9.708;2024-03-23T14:18:19;0.60;;;0.20;;
48207;SDS011;33997;53.278;9.708;2024-03-23T14:20:44;0.70;;;0.20;;
48207;SDS011;33997;53.278;9.708;2024-03-23T14:23:10;2.25;;;0.70;;
48207;SDS011;33997;53.278;9.708;2024-03-23T14:25:35;0.10;;;0.10;;
48207;SDS011;33997;53.278;9.708;2024-03-23T14:28:01;0.20;;;0.20;;
48207;SDS011;33997;53.278;9.708;2024-03-23T14:30:26;0.15;;;0.15;;
48207;SDS011;33997;53.278;9.708;2024-03-23T14:32:52;0.50;;;0.10;;
48207;SDS011;33997;53.278;9.708;2024-03-23T14:35:17;0.38;;;0.17;;
48207;SDS011;33997;53.278;9.708;2024-03-23T14:37:43;1.38;;;0.35;;
48207;SDS011;33997;53.278;9.708;2024-03-23T14:40:08;0.73;;;0.20;;
48207;SDS011;33997;53.278;9.708;2024-03-23T14:42:37;0.88;;;0.20;;
48207;SDS011;33997;53.278;9.708;2024-03-23T14:45:03;0.32;;;0.17;;
48207;SDS011;33997;53.278;9.708;2024-03-23T14:47:29;0.85;;;0.30;;
48207;SDS011;33997;53.278;9.708;2024-03-23T14:49:54;1.83;;;0.22;;
48207;SDS011;33997;53.278;9.708;2024-03-23T14:52:20;1.27;;;0.40;;
48207;SDS011;33997;53.278;9.708;2024-03-23T14:54:45;0.43;;;0.40;;
48207;SDS011;33997;53.278;9.708;2024-03-23T14:57:11;0.43;;;0.40;;
48207;SDS011;33997;53.278;9.708;2024-03-23T14:59:37;0.45;;;0.30;;
48207;SDS011;33997;53.278;9.708;2024-03-23T15:02:03;0.95;;;0.32;;
48207;SDS011;33997;53.278;9.708;2024-03-23T15:04:29;1.13;;;0.20;;
48207;SDS011;33997;53.278;9.708;2024-03-23T15:06:54;0.17;;;0.17;;
48207;SDS011;33997;53.278;9.708;2024-03-23T15:09:20;1.05;;;0.20;;
48207;SDS011;33997;53.278;9.708;2024-03-23T15:11:45;0.63;;;0.20;;
48207;SDS011;33997;53.278;9.708;2024-03-23T15:14:11;0.10;;;0.10;;
48207;SDS011;33997;53.278;9.708;2024-03-23T15:16:36;0.73;;;0.28;;
48207;SDS011;33997;53.278;9.708;2024-03-23T15:19:02;0.55;;;0.35;;
48207;SDS011;33997;53.278;9.708;2024-03-23T15:21:28;0.55;;;0.20;;
48207;SDS011;33997;53.278;9.708;2024-03-23T15:23:53;0.28;;;0.22;;
48207;SDS011;33997;53.278;9.708;2024-03-23T15:26:19;0.20;;;0.10;;
48207;SDS011;33997;53.278;9.708;2024-03-23T15:28:47;0.32;;;0.30;;
48207;SDS011;33997;53.278;9.708;2024-03-23T15:31:22;0.50;;;0.43;;
48207;SDS011;33997;53.278;9.708;2024-03-23T15:33:48;2.33;;;0.28;;
48207;SDS011;33997;53.278;9.708;2024-03-23T15:36:14;1.05;;;0.40;;
48207;SDS011;33997;53.278;9.708;2024-03-23T15:38:40;2.05;;;0.20;;
48207;SDS011;33997;53.278;9.708;2024-03-23T15:41:05;0.73;;;0.30;;
48207;SDS011;33997;53.278;9.708;2024-03-23T15:43:31;3.13;;;0.40;;
48207;SDS011;33997;53.278;9.708;2024-03-23T15:45:57;0.93;;;0.52;;
48207;SDS011;33997;53.278;9.708;2024-03-23T15:48:27;1.40;;;0.40;;
48207;SDS011;33997;53.278;9.708;2024-03-23T15:50:57;2.45;;;0.60;;